Airfield :
LOGIN :

Register | Disclaimer

   EN    FR    IT 

 










Legend :    VFR   Marginal VFR   IFR   Intensive IFR   Very Intensive IFR
Visi :
Ceiling :
>= 8 km
>= 3000ft
5 to 8 km
1000 to 3000 ft
1500m to 5 km
500 to 1000 ft
800 to 1500m
200 to 500 ft
< 800m
< 200 ft
Symbols :   Thunderstorms  Fog  Heavy snow  Heavy precipitations  Wind > 20 kt
SIGMETs :     Misc.  Thunderstorms  Icing  Turbulence  Mountain Waves  Volcanic Ashes






- Airport Elevation : 257 ft
- IATA code : MAN


EGCC - Manchester

CURRENT METAR :
  • 192050Z AUTO 10003KT 9999 NCD 10/02 Q1018 NOSIG

EXPIRED METARs :
  • 192020Z AUTO 10003KT 9999 NCD 11/02 Q1018
  • 191950Z AUTO 12002KT 9999 NCD 11/01 Q1018 NOSIG
  • 191920Z AUTO 12002KT 9999 NCD 13/01 Q1018 NOSIG
  • 191850Z AUTO VRB02KT 9999 NCD 14/01 Q1018
  • 191820Z AUTO VRB02KT 9999 NCD 14/00 Q1018 NOSIG

TAF TAF EGCC
Valid from the 19 at 18:00 until the 21 at 00:00 UTC


191658Z 1918/2024 VRB04KT CAVOK
TEMPO 1922/2009 8000
PROB30 2000/2007 4000 BR MIFG
BECMG 2010/2013 31010KT
PROB30
TEMPO 2013/2018 8000 -SHRA
TEMPO 2018/2024 7000 -RA BKN012
PROB30
TEMPO 2018/2024 BKN006
ATIS : +44 161 499 2324



MET'MAP, your aeronautical weather chart ! - Copyright ORBIFLY December 2007 - Disclaimer

ORBIFLY MET'MAP TEAM :

Programming & Development : Alexandra Zaïnal
Concept & original design : Baudouin d'Aumeries
Assistance for programming : Marc-Olivier Méhu
Technical & hardware support : Manuel Goepfert

Contact : metmap@orbifly.com




SOURCES & CREDITS :

   NOAA